Ciudad Guayana, Venezuela
Current Conditions -  °F | °C
As of 5:00 PM on Monday 20 Oct 2014 (Local Time) from TTPP Reporting Station
Few Clouds Few Clouds  
Wind Chill: 30°   Ceiling: Unl
Heat Index: 35°   Visibility: 6mi
Dew Point: 24°   Wind: 12mph
Humidity: 70%   Direction: 90°E
Pressure: 29.83"   Gusts: NA
Location:  8.37°N, 62.62°W
Report Text: TTPP 202100Z 09010KT 9999 FEW014TCU 30/24 Q1010 NOSIG TCU-NW
Loading
Personal Weather Stations






























Interactive Weather Map
Tropical Storm Tracking
New forecast layout! Learn more

10-Day Weather Forecast

Advertisements
Track Severe Weather on mobile